createdAt,value
2019-03-03T00:00:48.846Z,80.20
2019-03-03T00:03:18.010Z,80.10
2019-03-03T00:05:48.214Z,80.10
2019-03-03T00:08:17.452Z,80.20
2019-03-03T00:10:52.630Z,80.20
2019-03-03T00:13:22.837Z,80.20
2019-03-03T00:15:51.983Z,80.30
2019-03-03T00:18:21.155Z,80.30
2019-03-03T00:21:10.101Z,80.10
2019-03-03T00:23:40.878Z,80.10
2019-03-03T00:26:10.010Z,80.10
2019-03-03T00:28:39.183Z,80.00
2019-03-03T00:31:08.337Z,79.70
2019-03-03T00:33:37.504Z,79.70
2019-03-03T00:36:06.666Z,79.70
2019-03-03T00:38:37.544Z,79.80
2019-03-03T00:41:24.804Z,79.70
2019-03-03T00:44:04.658Z,79.70
2019-03-03T00:46:50.631Z,79.30
2019-03-03T00:49:21.435Z,79.60
2019-03-03T00:51:52.240Z,79.50
2019-03-03T00:54:23.035Z,79.50
2019-03-03T00:56:53.888Z,79.50
2019-03-03T00:59:27.354Z,79.50
2019-03-03T01:01:58.148Z,79.60
2019-03-03T01:04:28.923Z,79.60
2019-03-03T01:06:59.720Z,79.50
2019-03-03T01:09:45.662Z,79.70
2019-03-03T01:12:22.431Z,79.60
2019-03-03T01:15:11.522Z,79.70
2019-03-03T01:17:42.309Z,79.80
2019-03-03T01:20:28.228Z,79.80
2019-03-03T01:23:10.642Z,79.70
2019-03-03T01:25:39.808Z,79.80
2019-03-03T01:28:08.945Z,80.60
2019-03-03T01:30:38.163Z,81.30
2019-03-03T01:33:07.306Z,81.90
2019-03-03T01:35:36.435Z,82.60
2019-03-03T01:38:05.590Z,83.30
2019-03-03T01:40:34.749Z,83.70
2019-03-03T01:43:03.964Z,84.20
2019-03-03T01:45:33.126Z,84.50
2019-03-03T01:48:02.260Z,85.20
2019-03-03T01:50:31.412Z,85.40
2019-03-03T01:53:00.662Z,85.40
2019-03-03T01:55:35.366Z,85.50
2019-03-03T01:58:04.512Z,85.80
2019-03-03T02:00:33.742Z,86.00
2019-03-03T02:03:02.907Z,86.40
2019-03-03T02:05:32.107Z,86.40
2019-03-03T02:08:01.323Z,86.70
2019-03-03T02:10:30.470Z,86.90
2019-03-03T02:12:59.691Z,87.60
2019-03-03T02:15:28.839Z,86.90
2019-03-03T02:17:58.028Z,87.10
2019-03-03T02:20:27.162Z,87.90
2019-03-03T02:22:56.300Z,87.00
2019-03-03T02:25:25.457Z,87.30
2019-03-03T02:27:54.593Z,87.30
2019-03-03T02:30:23.744Z,87.60
2019-03-03T02:32:52.951Z,87.50
2019-03-03T02:35:22.119Z,87.50
2019-03-03T02:37:51.255Z,87.50
2019-03-03T02:40:20.429Z,87.60
2019-03-03T02:42:49.625Z,87.50
2019-03-03T02:45:19.010Z,87.50
2019-03-03T02:47:48.250Z,87.90
2019-03-03T02:50:17.411Z,87.90
2019-03-03T02:52:46.639Z,88.30
2019-03-03T02:55:17.324Z,88.70
2019-03-03T02:57:46.469Z,89.40
2019-03-03T03:00:20.281Z,89.70
2019-03-03T03:02:50.991Z,90.00
2019-03-03T03:05:23.459Z,90.10
2019-03-03T03:08:03.258Z,90.10
2019-03-03T03:10:49.021Z,90.20
2019-03-03T03:13:19.800Z,90.60
2019-03-03T03:15:50.602Z,90.40
2019-03-03T03:18:27.147Z,90.40
2019-03-03T03:20:57.938Z,90.40
2019-03-03T03:23:45.141Z,90.40
2019-03-03T03:26:15.919Z,90.50
2019-03-03T03:28:58.654Z,90.50
2019-03-03T03:31:35.541Z,90.30
2019-03-03T03:34:07.477Z,90.70
2019-03-03T03:36:38.349Z,90.80
2019-03-03T03:39:15.091Z,90.80
2019-03-03T03:41:45.900Z,90.90
2019-03-03T03:44:34.814Z,90.90
2019-03-03T03:47:11.290Z,90.90
2019-03-03T03:49:42.088Z,91.00
2019-03-03T03:52:24.818Z,91.00
2019-03-03T03:55:04.800Z,90.90
2019-03-03T03:57:50.597Z,90.90
2019-03-03T04:00:37.898Z,90.90
2019-03-03T04:03:20.837Z,90.90
2019-03-03T04:05:51.723Z,90.80
2019-03-03T04:08:28.237Z,90.90
2019-03-03T04:10:59.019Z,90.90
2019-03-03T04:13:38.693Z,91.00
2019-03-03T04:16:09.475Z,90.90
2019-03-03T04:18:46.194Z,90.80
2019-03-03T04:21:33.386Z,90.80
2019-03-03T04:24:09.983Z,90.70
2019-03-03T04:26:40.821Z,90.50
2019-03-03T04:29:11.611Z,90.50
2019-03-03T04:31:45.552Z,90.50
2019-03-03T04:34:19.361Z,90.30
2019-03-03T04:36:59.234Z,90.20
2019-03-03T04:39:30.040Z,90.10
2019-03-03T04:42:09.792Z,90.00
2019-03-03T04:44:49.894Z,90.00
2019-03-03T04:47:29.594Z,90.00
2019-03-03T04:50:00.397Z,89.70
2019-03-03T04:52:34.334Z,89.60
2019-03-03T04:55:18.376Z,89.30
2019-03-03T04:58:05.331Z,89.50
2019-03-03T05:00:36.141Z,89.10
2019-03-03T05:03:09.831Z,88.90
2019-03-03T05:05:57.056Z,88.90
2019-03-03T05:08:36.896Z,88.60
2019-03-03T05:11:25.790Z,88.60
2019-03-03T05:13:56.591Z,88.50
2019-03-03T05:16:30.151Z,88.40
2019-03-03T05:19:03.639Z,88.00
2019-03-03T05:21:32.807Z,88.00
2019-03-03T05:24:02.018Z,87.80
2019-03-03T05:26:31.155Z,87.70
2019-03-03T05:29:00.324Z,87.50
2019-03-03T05:31:29.507Z,87.30
2019-03-03T05:33:58.701Z,87.00
2019-03-03T05:36:27.860Z,87.10
2019-03-03T05:38:57.007Z,87.10
2019-03-03T05:41:26.155Z,87.10
2019-03-03T05:43:55.299Z,86.90
2019-03-03T05:46:24.485Z,86.80
2019-03-03T05:48:53.626Z,86.70
2019-03-03T05:51:22.778Z,86.30
2019-03-03T05:53:51.943Z,86.30
2019-03-03T05:56:21.179Z,86.40
2019-03-03T05:58:50.316Z,86.30
2019-03-03T06:01:19.479Z,86.10
2019-03-03T06:03:48.641Z,86.00
2019-03-03T06:06:17.804Z,86.10
2019-03-03T06:08:47.007Z,86.00
2019-03-03T06:11:16.161Z,85.80
2019-03-03T06:13:45.303Z,86.60
2019-03-03T06:16:15.381Z,85.80
2019-03-03T06:18:44.608Z,85.80
2019-03-03T06:21:13.736Z,85.70
2019-03-03T06:23:42.894Z,85.70
2019-03-03T06:26:12.051Z,85.70
2019-03-03T06:28:41.193Z,85.70
2019-03-03T06:31:10.343Z,85.50
2019-03-03T06:33:39.496Z,85.50
2019-03-03T06:36:08.735Z,85.30
2019-03-03T06:38:37.969Z,85.30
2019-03-03T06:41:07.128Z,85.10
2019-03-03T06:43:38.455Z,85.10
2019-03-03T06:46:07.884Z,84.80
2019-03-03T06:48:37.118Z,84.50
2019-03-03T06:51:06.268Z,84.20
2019-03-03T06:53:35.431Z,84.00
2019-03-03T06:56:04.642Z,83.70
2019-03-03T06:58:33.882Z,83.50
2019-03-03T07:01:03.112Z,83.20
2019-03-03T07:03:32.247Z,82.70
2019-03-03T07:06:01.411Z,82.50
2019-03-03T07:08:31.208Z,82.30
2019-03-03T07:11:00.347Z,82.00
2019-03-03T07:13:33.095Z,81.40
2019-03-03T07:16:02.222Z,81.10
2019-03-03T07:18:31.387Z,81.10
2019-03-03T07:21:00.531Z,80.60
2019-03-03T07:23:30.756Z,80.20
2019-03-03T07:25:59.919Z,79.60
2019-03-03T07:28:29.680Z,79.40
2019-03-03T07:30:58.911Z,78.80
2019-03-03T07:33:29.739Z,78.90
2019-03-03T07:35:58.947Z,78.30
2019-03-03T07:38:28.151Z,77.90
2019-03-03T07:40:57.306Z,77.40
2019-03-03T07:43:28.871Z,76.90
2019-03-03T07:45:59.094Z,76.00
2019-03-03T07:48:28.239Z,75.60
2019-03-03T07:50:57.395Z,75.30
2019-03-03T07:53:26.553Z,75.60
2019-03-03T07:55:55.777Z,74.60
2019-03-03T07:58:24.948Z,74.20
2019-03-03T08:00:54.099Z,74.10
2019-03-03T08:03:23.248Z,73.40
2019-03-03T08:05:52.467Z,72.90
2019-03-03T08:08:21.621Z,72.30
2019-03-03T08:10:51.524Z,72.30
2019-03-03T08:13:20.698Z,71.40
2019-03-03T08:15:50.906Z,70.90
2019-03-03T08:18:20.059Z,70.40
2019-03-03T08:20:49.214Z,70.10
2019-03-03T08:23:18.375Z,70.10
2019-03-03T08:25:47.502Z,69.40
2019-03-03T08:28:16.655Z,69.00
2019-03-03T08:30:45.809Z,68.60
2019-03-03T08:33:15.002Z,68.50
2019-03-03T08:35:44.179Z,68.60
2019-03-03T08:38:13.396Z,68.30
2019-03-03T08:40:42.699Z,67.50
2019-03-03T08:43:20.839Z,66.90
2019-03-03T08:45:51.710Z,66.50
2019-03-03T08:48:25.363Z,66.30
2019-03-03T08:51:14.458Z,66.50
2019-03-03T08:54:03.255Z,66.60
2019-03-03T08:56:35.157Z,66.30
2019-03-03T08:59:06.264Z,66.60
2019-03-03T09:01:40.399Z,66.40
2019-03-03T09:04:19.902Z,66.40
2019-03-03T09:07:05.840Z,66.10
2019-03-03T09:09:36.638Z,66.60
2019-03-03T09:12:07.447Z,67.50
2019-03-03T09:14:56.576Z,67.40
2019-03-03T09:17:27.355Z,67.40
2019-03-03T09:20:10.432Z,67.10
2019-03-03T09:22:49.987Z,67.60
2019-03-03T09:25:21.851Z,67.40
2019-03-03T09:27:52.959Z,67.60
2019-03-03T09:30:23.759Z,67.90
2019-03-03T09:33:10.673Z,67.30
2019-03-03T09:35:41.494Z,67.60
2019-03-03T09:38:24.455Z,67.30
2019-03-03T09:44:00.176Z,66.90
2019-03-03T09:46:30.958Z,65.70
2019-03-03T09:49:20.219Z,65.70
2019-03-03T09:51:58.019Z,65.10
2019-03-03T09:54:42.228Z,64.40
2019-03-03T09:57:24.487Z,64.30
2019-03-03T10:00:00.986Z,64.60
2019-03-03T10:02:35.291Z,64.60
2019-03-03T10:05:10.387Z,64.40
2019-03-03T10:07:47.362Z,64.90
2019-03-03T10:10:21.894Z,65.10
2019-03-03T10:13:05.538Z,64.80
2019-03-03T10:15:36.541Z,64.80
2019-03-03T10:18:23.575Z,64.30
2019-03-03T10:21:00.447Z,64.10
2019-03-03T10:23:37.174Z,64.10
2019-03-03T10:26:16.789Z,63.60
2019-03-03T10:29:05.061Z,63.90
2019-03-03T10:31:50.839Z,64.30
2019-03-03T10:34:27.559Z,66.30
2019-03-03T10:37:12.036Z,66.60
2019-03-03T10:39:42.870Z,66.20
2019-03-03T10:42:27.838Z,67.30
2019-03-03T10:45:04.059Z,66.60
2019-03-03T10:47:34.953Z,66.90
2019-03-03T10:50:23.744Z,66.20
2019-03-03T10:52:54.662Z,67.10
2019-03-03T10:55:31.151Z,67.60
2019-03-03T10:58:18.484Z,68.00
2019-03-03T11:01:05.713Z,67.90
2019-03-03T11:03:52.922Z,68.00
2019-03-03T11:06:23.730Z,68.20
2019-03-03T11:09:12.716Z,67.60
2019-03-03T11:11:47.963Z,67.30
2019-03-03T11:14:21.786Z,66.70
2019-03-03T11:16:52.553Z,66.60
2019-03-03T11:19:23.407Z,66.50
2019-03-03T11:21:54.236Z,66.20
2019-03-03T11:24:25.191Z,65.80
2019-03-03T11:26:55.987Z,65.40
2019-03-03T11:29:26.863Z,65.30
2019-03-03T11:32:12.693Z,65.50
2019-03-03T11:34:46.575Z,65.40
2019-03-03T11:37:17.454Z,65.50
2019-03-03T11:39:54.791Z,65.50
2019-03-03T11:42:25.920Z,64.60
2019-03-03T11:44:56.743Z,64.80
2019-03-03T11:47:35.385Z,65.00
2019-03-03T11:50:27.294Z,65.40
2019-03-03T11:53:16.471Z,66.00
2019-03-03T11:55:50.368Z,65.70
2019-03-03T11:58:21.408Z,65.40
2019-03-03T12:01:09.106Z,66.10
2019-03-03T12:03:43.170Z,66.30
2019-03-03T12:06:13.975Z,67.80
2019-03-03T12:09:12.544Z,68.60
2019-03-03T12:11:52.385Z,69.40
2019-03-03T12:14:25.952Z,71.00
2019-03-03T12:16:59.452Z,73.50
2019-03-03T12:19:42.231Z,76.40
2019-03-03T12:22:13.017Z,77.60
2019-03-03T12:24:58.915Z,77.30
2019-03-03T12:27:41.738Z,76.90
2019-03-03T12:30:12.601Z,77.00
2019-03-03T12:32:49.135Z,78.40
2019-03-03T12:35:22.963Z,79.30
2019-03-03T12:38:02.436Z,76.40
2019-03-03T12:40:36.181Z,75.10
2019-03-03T12:43:09.405Z,74.20
2019-03-03T12:45:58.467Z,75.00
2019-03-03T12:48:47.347Z,74.20
2019-03-03T12:51:34.391Z,73.00
2019-03-03T12:54:21.761Z,72.50
2019-03-03T12:56:52.542Z,71.30
2019-03-03T12:59:29.846Z,71.20
2019-03-03T13:02:16.695Z,70.70
2019-03-03T13:04:47.518Z,70.80
2019-03-03T13:07:18.445Z,70.00
2019-03-03T13:10:04.291Z,70.60
2019-03-03T13:12:51.135Z,70.80
2019-03-03T13:15:30.927Z,71.20
2019-03-03T13:18:04.366Z,72.30
2019-03-03T13:20:38.323Z,72.40
2019-03-03T13:23:15.747Z,72.60
2019-03-03T13:26:00.071Z,72.40
2019-03-03T13:28:31.044Z,72.70
2019-03-03T13:31:18.358Z,73.00
2019-03-03T13:33:55.355Z,73.10
2019-03-03T13:36:32.471Z,72.80
2019-03-03T13:39:12.203Z,71.90
2019-03-03T13:41:45.723Z,72.00
2019-03-03T13:44:14.887Z,71.80
2019-03-03T13:46:44.360Z,71.50
2019-03-03T13:49:15.138Z,71.10
2019-03-03T13:51:44.344Z,71.30
2019-03-03T13:54:13.679Z,70.90
2019-03-03T13:56:44.483Z,70.70
2019-03-03T13:59:13.688Z,70.70
2019-03-03T14:01:43.563Z,69.80
2019-03-03T14:04:12.916Z,69.20
2019-03-03T14:06:42.172Z,69.10
2019-03-03T14:09:12.732Z,68.90
2019-03-03T14:11:42.454Z,68.70
2019-03-03T14:14:14.728Z,68.40
2019-03-03T14:16:45.020Z,68.40
2019-03-03T14:19:15.189Z,68.20
2019-03-03T14:21:44.676Z,68.10
2019-03-03T14:24:14.020Z,68.70
2019-03-03T14:26:43.447Z,68.60
2019-03-03T14:29:12.663Z,68.80
2019-03-03T14:31:41.918Z,69.30
2019-03-03T14:34:11.098Z,69.80
2019-03-03T14:36:40.562Z,70.60
2019-03-03T14:39:09.783Z,71.60
2019-03-03T14:41:40.494Z,71.50
2019-03-03T14:44:09.749Z,72.20
2019-03-03T14:46:39.012Z,73.00
2019-03-03T14:49:08.240Z,74.00
2019-03-03T14:51:37.434Z,75.00
2019-03-03T14:54:06.576Z,75.00
2019-03-03T14:56:35.707Z,75.20
2019-03-03T14:59:04.851Z,75.00
2019-03-03T15:01:33.993Z,75.40
2019-03-03T15:04:03.157Z,75.70
2019-03-03T15:06:32.588Z,76.30
2019-03-03T15:09:01.823Z,76.90
2019-03-03T15:11:32.582Z,77.40
2019-03-03T15:14:01.774Z,77.90
2019-03-03T15:16:31.007Z,78.50
2019-03-03T15:19:01.799Z,79.10
2019-03-03T15:21:30.977Z,79.90
2019-03-03T15:24:00.177Z,81.70
2019-03-03T15:26:29.325Z,82.00
2019-03-03T15:28:58.469Z,82.70
2019-03-03T15:31:37.319Z,83.40
2019-03-03T15:33:58.520Z,83.60
2019-03-03T15:36:27.720Z,84.00
2019-03-03T15:38:56.903Z,84.50
2019-03-03T15:41:26.149Z,84.70
2019-03-03T15:43:55.299Z,84.80
2019-03-03T15:46:26.159Z,84.80
2019-03-03T15:48:55.308Z,85.30
2019-03-03T15:51:24.458Z,85.60
2019-03-03T15:53:53.615Z,86.00
2019-03-03T15:56:22.800Z,85.90
2019-03-03T15:58:55.632Z,86.10
2019-03-03T16:01:22.842Z,85.90
2019-03-03T16:03:51.985Z,86.00
2019-03-03T16:06:21.202Z,86.50
2019-03-03T16:08:50.674Z,86.70
2019-03-03T16:11:22.833Z,87.10
2019-03-03T16:13:51.976Z,87.00
2019-03-03T16:16:22.189Z,87.40
2019-03-03T16:18:54.005Z,88.70
2019-03-03T16:21:23.218Z,88.30
2019-03-03T16:23:52.386Z,89.50
2019-03-03T16:26:22.465Z,89.50
2019-03-03T16:28:51.632Z,89.10
2019-03-03T16:31:20.850Z,89.10
2019-03-03T16:33:50.380Z,89.00
2019-03-03T16:36:19.543Z,89.60
2019-03-03T16:38:48.755Z,89.30
2019-03-03T16:41:17.995Z,89.80
2019-03-03T16:43:47.243Z,89.90
2019-03-03T16:46:16.399Z,90.00
2019-03-03T16:48:45.630Z,90.00
2019-03-03T16:51:14.830Z,90.30
2019-03-03T16:53:44.225Z,90.30
2019-03-03T16:56:16.170Z,90.20
2019-03-03T16:58:48.340Z,90.20
2019-03-03T17:01:19.171Z,90.00
2019-03-03T17:03:48.331Z,90.00
2019-03-03T17:06:17.475Z,89.90
2019-03-03T17:08:46.728Z,90.00
2019-03-03T17:11:17.135Z,90.00
2019-03-03T17:13:46.419Z,89.70
2019-03-03T17:16:16.711Z,89.60
2019-03-03T17:18:45.944Z,89.90
2019-03-03T17:21:15.288Z,89.90
2019-03-03T17:23:44.573Z,89.70
2019-03-03T17:26:13.931Z,89.30
2019-03-03T17:28:44.750Z,89.30
2019-03-03T17:31:14.144Z,89.00
2019-03-03T17:33:43.336Z,89.20
2019-03-03T17:36:12.674Z,89.50
2019-03-03T17:38:41.925Z,89.10
2019-03-03T17:41:11.181Z,89.00
2019-03-03T17:43:40.439Z,89.20
2019-03-03T17:46:09.731Z,89.20
2019-03-03T17:48:39.099Z,89.20
2019-03-03T17:51:08.256Z,89.10
2019-03-03T17:53:37.641Z,89.20
2019-03-03T17:56:06.897Z,88.90
2019-03-03T17:58:36.135Z,88.80
2019-03-03T18:01:06.313Z,88.70
2019-03-03T18:03:35.538Z,88.90
2019-03-03T18:06:04.772Z,88.70
2019-03-03T18:08:33.957Z,88.50
2019-03-03T18:11:03.281Z,88.30
2019-03-03T18:13:32.564Z,88.00
2019-03-03T18:16:01.778Z,88.00
2019-03-03T18:18:32.656Z,88.30
2019-03-03T18:21:01.843Z,88.10
2019-03-03T18:23:31.680Z,88.10
2019-03-03T18:26:00.954Z,87.80
2019-03-03T18:28:30.243Z,87.60
2019-03-03T18:30:59.428Z,87.50
2019-03-03T18:33:28.672Z,87.30
2019-03-03T18:35:57.851Z,87.00
2019-03-03T18:38:27.065Z,87.10
2019-03-03T18:40:56.221Z,87.10
2019-03-03T18:43:25.379Z,87.00
2019-03-03T18:45:54.551Z,87.20
2019-03-03T18:48:23.724Z,87.30
2019-03-03T18:50:52.915Z,87.00
2019-03-03T18:53:22.053Z,87.20
2019-03-03T18:55:55.044Z,87.10
2019-03-03T18:58:24.282Z,87.10
2019-03-03T19:00:53.629Z,87.00
2019-03-03T19:03:22.881Z,86.90
2019-03-03T19:05:55.702Z,86.80
2019-03-03T19:08:23.573Z,86.60
2019-03-03T19:10:53.102Z,86.40
2019-03-03T19:13:22.312Z,86.10
2019-03-03T19:15:51.616Z,86.30
2019-03-03T19:18:21.058Z,85.90
2019-03-03T19:20:50.477Z,87.00
2019-03-03T19:23:19.948Z,86.20
2019-03-03T19:25:49.258Z,86.00
2019-03-03T19:28:18.700Z,86.20
2019-03-03T19:30:47.966Z,85.80
2019-03-03T19:33:27.533Z,85.40
2019-03-03T19:35:56.783Z,85.50
2019-03-03T19:38:32.391Z,85.30
2019-03-03T19:41:01.780Z,85.40
2019-03-03T19:43:31.083Z,85.30
2019-03-03T19:46:02.893Z,84.90
2019-03-03T19:48:35.897Z,84.70
2019-03-03T19:51:06.024Z,84.70
2019-03-03T19:53:35.320Z,84.50
2019-03-03T19:56:04.570Z,84.40
2019-03-03T19:58:34.002Z,84.40
2019-03-03T20:01:04.015Z,84.30
2019-03-03T20:03:33.389Z,84.10
2019-03-03T20:06:02.693Z,84.20
2019-03-03T20:08:32.743Z,84.00
2019-03-03T20:11:02.135Z,83.90
2019-03-03T20:13:31.476Z,83.70
2019-03-03T20:16:00.739Z,83.70
2019-03-03T20:18:30.831Z,83.60
2019-03-03T20:21:00.487Z,83.70
2019-03-03T20:23:29.626Z,83.40
2019-03-03T20:25:58.843Z,83.90
2019-03-03T20:28:28.153Z,83.00
2019-03-03T20:30:58.060Z,82.70
2019-03-03T20:33:27.384Z,82.60
2019-03-03T20:35:56.803Z,82.80
2019-03-03T20:38:26.047Z,82.60
2019-03-03T20:40:55.558Z,82.50
2019-03-03T20:43:24.896Z,82.40
2019-03-03T20:45:54.151Z,82.60
2019-03-03T20:48:24.916Z,82.30
2019-03-03T20:50:54.155Z,82.30
2019-03-03T20:53:23.513Z,82.40
2019-03-03T20:55:52.882Z,82.20
2019-03-03T20:58:22.975Z,82.40
2019-03-03T21:00:52.939Z,82.10
2019-03-03T21:03:23.967Z,81.90
2019-03-03T21:05:58.074Z,81.80
2019-03-03T21:08:27.289Z,81.40
2019-03-03T21:10:58.107Z,81.50
2019-03-03T21:13:28.512Z,81.10
2019-03-03T21:15:58.078Z,80.90
2019-03-03T21:18:28.483Z,81.00
2019-03-03T21:20:57.668Z,80.70
2019-03-03T21:23:26.855Z,80.40
2019-03-03T21:25:57.750Z,80.50
2019-03-03T21:28:28.964Z,80.40
2019-03-03T21:30:58.219Z,80.50
2019-03-03T21:33:27.973Z,80.20
2019-03-03T21:35:57.655Z,80.30
2019-03-03T21:38:26.908Z,80.30
2019-03-03T21:40:58.827Z,80.20
2019-03-03T21:43:31.075Z,80.10
2019-03-03T21:46:00.973Z,79.80
2019-03-03T21:48:30.299Z,79.50
2019-03-03T21:50:59.505Z,79.80
2019-03-03T21:53:28.667Z,79.70
2019-03-03T21:56:01.670Z,79.70
2019-03-03T21:58:31.003Z,79.70
2019-03-03T22:01:00.201Z,79.60
2019-03-03T22:03:29.999Z,79.40
2019-03-03T22:05:59.307Z,79.40
2019-03-03T22:08:28.448Z,79.20
2019-03-03T22:10:57.667Z,79.10
2019-03-03T22:13:27.066Z,79.10
2019-03-03T22:15:56.212Z,79.90
2019-03-03T22:18:28.094Z,79.70
2019-03-03T22:20:57.496Z,80.90
2019-03-03T22:23:27.051Z,80.50
2019-03-03T22:25:59.163Z,80.70
2019-03-03T22:28:28.315Z,80.50
2019-03-03T22:30:57.508Z,80.70
2019-03-03T22:33:27.878Z,80.80
2019-03-03T22:35:59.467Z,81.20
2019-03-03T22:38:27.891Z,81.40
2019-03-03T22:40:57.145Z,81.60
2019-03-03T22:43:28.037Z,81.60
2019-03-03T22:45:58.699Z,81.60
2019-03-03T22:48:27.877Z,81.80
2019-03-03T22:50:57.026Z,81.90
2019-03-03T22:53:26.195Z,82.20
2019-03-03T22:55:55.407Z,82.40
2019-03-03T22:58:24.579Z,82.30
2019-03-03T23:01:04.590Z,82.60
2019-03-03T23:03:37.067Z,82.20
2019-03-03T23:06:18.200Z,82.20
2019-03-03T23:09:11.966Z,82.30
2019-03-03T23:12:11.678Z,82.10
2019-03-03T23:15:03.631Z,82.00
2019-03-03T23:17:48.062Z,81.80
2019-03-03T23:20:29.320Z,81.50
2019-03-03T23:23:07.325Z,81.50
2019-03-03T23:25:47.920Z,81.50
2019-03-03T23:28:17.231Z,81.50
2019-03-03T23:30:47.614Z,81.00
2019-03-03T23:33:17.526Z,80.80
2019-03-03T23:35:46.830Z,80.40
2019-03-03T23:38:15.999Z,80.40
2019-03-03T23:40:45.165Z,80.00
2019-03-03T23:43:14.305Z,80.20
2019-03-03T23:45:43.465Z,80.00
2019-03-03T23:48:12.616Z,79.80
2019-03-03T23:50:41.857Z,79.60
2019-03-03T23:53:10.991Z,79.30
2019-03-03T23:55:40.184Z,79.30
2019-03-03T23:58:09.377Z,78.90
